sensor_id;sensor_type;location;lat;lon;timestamp;P1;durP1;ratioP1;P2;durP2;ratioP2
54269;SDS011;40181;51.560;13.000;2023-02-28T00:01:59;2.28;;;2.08;;
54269;SDS011;40181;51.560;13.000;2023-02-28T00:04:31;3.45;;;2.28;;
54269;SDS011;40181;51.560;13.000;2023-02-28T00:07:00;2.45;;;2.20;;
54269;SDS011;40181;51.560;13.000;2023-02-28T00:09:29;2.50;;;2.30;;
54269;SDS011;40181;51.560;13.000;2023-02-28T00:11:58;2.45;;;2.17;;
54269;SDS011;40181;51.560;13.000;2023-02-28T00:14:29;3.75;;;2.25;;
54269;SDS011;40181;51.560;13.000;2023-02-28T00:16:59;2.25;;;2.05;;
54269;SDS011;40181;51.560;13.000;2023-02-28T00:19:28;3.65;;;2.40;;
54269;SDS011;40181;51.560;13.000;2023-02-28T00:21:59;2.42;;;2.13;;
54269;SDS011;40181;51.560;13.000;2023-02-28T00:24:28;4.65;;;2.40;;
54269;SDS011;40181;51.560;13.000;2023-02-28T00:26:57;2.67;;;2.28;;
54269;SDS011;40181;51.560;13.000;2023-02-28T00:29:26;4.20;;;2.25;;
54269;SDS011;40181;51.560;13.000;2023-02-28T00:31:55;2.95;;;2.22;;
54269;SDS011;40181;51.560;13.000;2023-02-28T00:34:24;2.72;;;2.30;;
54269;SDS011;40181;51.560;13.000;2023-02-28T00:36:56;2.67;;;2.42;;
54269;SDS011;40181;51.560;13.000;2023-02-28T00:39:25;3.28;;;2.50;;
54269;SDS011;40181;51.560;13.000;2023-02-28T00:41:54;4.43;;;2.50;;
54269;SDS011;40181;51.560;13.000;2023-02-28T00:44:23;3.35;;;2.45;;
54269;SDS011;40181;51.560;13.000;2023-02-28T00:46:52;5.25;;;2.83;;
54269;SDS011;40181;51.560;13.000;2023-02-28T00:49:21;2.42;;;2.17;;
54269;SDS011;40181;51.560;13.000;2023-02-28T00:51:51;3.50;;;2.20;;
54269;SDS011;40181;51.560;13.000;2023-02-28T00:54:23;5.22;;;2.20;;
54269;SDS011;40181;51.560;13.000;2023-02-28T00:56:53;2.85;;;2.50;;
54269;SDS011;40181;51.560;13.000;2023-02-28T00:59:22;4.35;;;2.15;;
54269;SDS011;40181;51.560;13.000;2023-02-28T01:01:51;2.10;;;1.90;;
54269;SDS011;40181;51.560;13.000;2023-02-28T01:04:20;3.40;;;2.42;;
54269;SDS011;40181;51.560;13.000;2023-02-28T01:06:49;6.85;;;2.60;;
54269;SDS011;40181;51.560;13.000;2023-02-28T01:09:18;3.10;;;2.50;;
54269;SDS011;40181;51.560;13.000;2023-02-28T01:11:50;3.13;;;2.25;;
54269;SDS011;40181;51.560;13.000;2023-02-28T01:14:20;2.80;;;2.20;;
54269;SDS011;40181;51.560;13.000;2023-02-28T01:16:49;2.38;;;2.17;;
54269;SDS011;40181;51.560;13.000;2023-02-28T01:19:18;3.17;;;2.23;;
54269;SDS011;40181;51.560;13.000;2023-02-28T01:21:47;3.35;;;2.35;;
54269;SDS011;40181;51.560;13.000;2023-02-28T01:24:16;5.22;;;2.92;;
54269;SDS011;40181;51.560;13.000;2023-02-28T01:26:48;2.58;;;2.28;;
54269;SDS011;40181;51.560;13.000;2023-02-28T01:29:17;3.15;;;2.45;;
54269;SDS011;40181;51.560;13.000;2023-02-28T01:31:46;2.40;;;2.20;;
54269;SDS011;40181;51.560;13.000;2023-02-28T01:34:15;2.50;;;2.25;;
54269;SDS011;40181;51.560;13.000;2023-02-28T01:36:45;2.93;;;2.67;;
54269;SDS011;40181;51.560;13.000;2023-02-28T01:39:14;2.63;;;2.38;;
54269;SDS011;40181;51.560;13.000;2023-02-28T01:41:43;3.42;;;2.70;;
54269;SDS011;40181;51.560;13.000;2023-02-28T01:47:30;2.78;;;2.47;;
54269;SDS011;40181;51.560;13.000;2023-02-28T01:50:03;2.88;;;2.15;;
54269;SDS011;40181;51.560;13.000;2023-02-28T01:52:37;3.72;;;2.97;;
54269;SDS011;40181;51.560;13.000;2023-02-28T01:55:07;3.38;;;2.40;;
54269;SDS011;40181;51.560;13.000;2023-02-28T01:57:40;3.03;;;2.53;;
54269;SDS011;40181;51.560;13.000;2023-02-28T02:00:16;3.63;;;2.63;;
54269;SDS011;40181;51.560;13.000;2023-02-28T02:02:52;3.65;;;2.22;;
54269;SDS011;40181;51.560;13.000;2023-02-28T02:05:27;4.22;;;2.65;;
54269;SDS011;40181;51.560;13.000;2023-02-28T02:08:01;2.85;;;2.35;;
54269;SDS011;40181;51.560;13.000;2023-02-28T02:10:34;2.88;;;2.30;;
54269;SDS011;40181;51.560;13.000;2023-02-28T02:13:11;2.53;;;2.33;;
54269;SDS011;40181;51.560;13.000;2023-02-28T02:16:04;3.00;;;2.30;;
54269;SDS011;40181;51.560;13.000;2023-02-28T02:18:52;3.20;;;2.80;;
54269;SDS011;40181;51.560;13.000;2023-02-28T02:21:39;2.97;;;2.55;;
54269;SDS011;40181;51.560;13.000;2023-02-28T02:24:40;3.10;;;2.42;;
54269;SDS011;40181;51.560;13.000;2023-02-28T02:27:41;2.53;;;2.15;;
54269;SDS011;40181;51.560;13.000;2023-02-28T02:31:03;3.10;;;2.60;;
54269;SDS011;40181;51.560;13.000;2023-02-28T02:34:13;4.90;;;2.55;;
54269;SDS011;40181;51.560;13.000;2023-02-28T02:37:15;4.82;;;3.28;;
54269;SDS011;40181;51.560;13.000;2023-02-28T02:39:59;3.00;;;2.70;;
54269;SDS011;40181;51.560;13.000;2023-02-28T02:42:37;4.03;;;3.17;;
54269;SDS011;40181;51.560;13.000;2023-02-28T02:45:14;2.60;;;2.40;;
54269;SDS011;40181;51.560;13.000;2023-02-28T02:47:47;2.78;;;2.58;;
54269;SDS011;40181;51.560;13.000;2023-02-28T02:52:54;2.85;;;2.50;;
54269;SDS011;40181;51.560;13.000;2023-02-28T02:55:28;3.25;;;2.30;;
54269;SDS011;40181;51.560;13.000;2023-02-28T02:58:01;3.53;;;2.92;;
54269;SDS011;40181;51.560;13.000;2023-02-28T03:00:35;4.28;;;3.13;;
54269;SDS011;40181;51.560;13.000;2023-02-28T03:03:11;2.35;;;2.15;;
54269;SDS011;40181;51.560;13.000;2023-02-28T03:05:46;3.97;;;2.83;;
54269;SDS011;40181;51.560;13.000;2023-02-28T03:08:16;3.83;;;2.65;;
54269;SDS011;40181;51.560;13.000;2023-02-28T03:10:47;3.90;;;2.50;;
54269;SDS011;40181;51.560;13.000;2023-02-28T03:16:35;2.97;;;2.63;;
54269;SDS011;40181;51.560;13.000;2023-02-28T03:19:33;2.80;;;2.53;;
54269;SDS011;40181;51.560;13.000;2023-02-28T03:22:22;2.28;;;2.08;;
54269;SDS011;40181;51.560;13.000;2023-02-28T03:25:05;3.58;;;2.30;;
54269;SDS011;40181;51.560;13.000;2023-02-28T03:27:40;3.75;;;2.55;;
54269;SDS011;40181;51.560;13.000;2023-02-28T03:30:19;3.70;;;2.88;;
54269;SDS011;40181;51.560;13.000;2023-02-28T03:32:55;2.30;;;2.10;;
54269;SDS011;40181;51.560;13.000;2023-02-28T03:35:28;2.85;;;2.25;;
54269;SDS011;40181;51.560;13.000;2023-02-28T03:38:05;3.70;;;2.78;;
54269;SDS011;40181;51.560;13.000;2023-02-28T03:40:42;3.53;;;2.47;;
54269;SDS011;40181;51.560;13.000;2023-02-28T03:43:18;2.75;;;2.45;;
54269;SDS011;40181;51.560;13.000;2023-02-28T03:45:51;2.53;;;2.30;;
54269;SDS011;40181;51.560;13.000;2023-02-28T03:48:23;2.67;;;2.30;;
54269;SDS011;40181;51.560;13.000;2023-02-28T03:50:57;2.83;;;2.42;;
54269;SDS011;40181;51.560;13.000;2023-02-28T03:53:33;3.33;;;2.42;;
54269;SDS011;40181;51.560;13.000;2023-02-28T03:56:08;6.57;;;2.67;;
54269;SDS011;40181;51.560;13.000;2023-02-28T03:58:47;2.53;;;2.33;;
54269;SDS011;40181;51.560;13.000;2023-02-28T04:01:22;2.25;;;2.05;;
54269;SDS011;40181;51.560;13.000;2023-02-28T04:03:54;3.05;;;2.42;;
54269;SDS011;40181;51.560;13.000;2023-02-28T04:06:23;4.10;;;2.85;;
54269;SDS011;40181;51.560;13.000;2023-02-28T04:08:55;2.58;;;2.38;;
54269;SDS011;40181;51.560;13.000;2023-02-28T04:11:26;3.78;;;2.75;;
54269;SDS011;40181;51.560;13.000;2023-02-28T04:14:02;3.33;;;2.83;;
54269;SDS011;40181;51.560;13.000;2023-02-28T04:16:32;2.85;;;2.53;;
54269;SDS011;40181;51.560;13.000;2023-02-28T04:19:03;2.83;;;2.33;;
54269;SDS011;40181;51.560;13.000;2023-02-28T04:21:35;7.25;;;2.90;;
54269;SDS011;40181;51.560;13.000;2023-02-28T04:24:10;3.20;;;2.88;;
54269;SDS011;40181;51.560;13.000;2023-02-28T04:26:42;4.47;;;2.55;;
54269;SDS011;40181;51.560;13.000;2023-02-28T04:29:14;2.90;;;2.33;;
54269;SDS011;40181;51.560;13.000;2023-02-28T04:31:48;3.72;;;2.83;;
54269;SDS011;40181;51.560;13.000;2023-02-28T04:34:18;6.07;;;3.20;;
54269;SDS011;40181;51.560;13.000;2023-02-28T04:36:48;2.67;;;2.47;;
54269;SDS011;40181;51.560;13.000;2023-02-28T04:39:22;3.22;;;2.42;;
54269;SDS011;40181;51.560;13.000;2023-02-28T04:41:52;4.72;;;2.35;;
54269;SDS011;40181;51.560;13.000;2023-02-28T04:44:21;2.70;;;2.40;;
54269;SDS011;40181;51.560;13.000;2023-02-28T04:46:51;3.27;;;2.87;;
54269;SDS011;40181;51.560;13.000;2023-02-28T04:49:20;2.33;;;2.13;;
54269;SDS011;40181;51.560;13.000;2023-02-28T04:51:49;4.18;;;3.08;;
54269;SDS011;40181;51.560;13.000;2023-02-28T04:54:18;2.33;;;2.13;;
54269;SDS011;40181;51.560;13.000;2023-02-28T04:56:50;3.08;;;2.45;;
54269;SDS011;40181;51.560;13.000;2023-02-28T04:59:19;3.40;;;2.63;;
54269;SDS011;40181;51.560;13.000;2023-02-28T05:01:49;2.58;;;2.38;;
54269;SDS011;40181;51.560;13.000;2023-02-28T05:04:18;3.10;;;2.58;;
54269;SDS011;40181;51.560;13.000;2023-02-28T05:06:47;4.53;;;3.03;;
54269;SDS011;40181;51.560;13.000;2023-02-28T05:09:16;4.47;;;3.40;;
54269;SDS011;40181;51.560;13.000;2023-02-28T05:11:48;4.18;;;3.08;;
54269;SDS011;40181;51.560;13.000;2023-02-28T05:14:17;3.20;;;2.75;;
54269;SDS011;40181;51.560;13.000;2023-02-28T05:16:46;4.93;;;2.83;;
54269;SDS011;40181;51.560;13.000;2023-02-28T05:19:15;4.50;;;3.15;;
54269;SDS011;40181;51.560;13.000;2023-02-28T05:21:52;3.72;;;2.83;;
54269;SDS011;40181;51.560;13.000;2023-02-28T05:24:24;4.22;;;3.13;;
54269;SDS011;40181;51.560;13.000;2023-02-28T05:26:56;3.38;;;3.03;;
54269;SDS011;40181;51.560;13.000;2023-02-28T05:29:25;2.72;;;2.50;;
54269;SDS011;40181;51.560;13.000;2023-02-28T05:31:54;3.35;;;2.75;;
54269;SDS011;40181;51.560;13.000;2023-02-28T05:34:23;2.88;;;2.60;;
54269;SDS011;40181;51.560;13.000;2023-02-28T05:36:52;5.97;;;3.30;;
54269;SDS011;40181;51.560;13.000;2023-02-28T05:39:21;2.85;;;2.55;;
54269;SDS011;40181;51.560;13.000;2023-02-28T05:41:50;3.17;;;2.88;;
54269;SDS011;40181;51.560;13.000;2023-02-28T05:44:23;3.15;;;2.85;;
54269;SDS011;40181;51.560;13.000;2023-02-28T05:46:52;4.75;;;3.80;;
54269;SDS011;40181;51.560;13.000;2023-02-28T05:49:21;5.13;;;3.92;;
54269;SDS011;40181;51.560;13.000;2023-02-28T05:51:50;7.18;;;4.38;;
54269;SDS011;40181;51.560;13.000;2023-02-28T05:54:19;5.63;;;4.20;;
54269;SDS011;40181;51.560;13.000;2023-02-28T05:56:48;3.95;;;3.42;;
54269;SDS011;40181;51.560;13.000;2023-02-28T05:59:17;4.97;;;3.85;;
54269;SDS011;40181;51.560;13.000;2023-02-28T06:01:49;5.43;;;3.55;;
54269;SDS011;40181;51.560;13.000;2023-02-28T06:04:18;4.85;;;4.32;;
54269;SDS011;40181;51.560;13.000;2023-02-28T06:09:18;5.43;;;3.95;;
54269;SDS011;40181;51.560;13.000;2023-02-28T06:11:48;6.50;;;3.53;;
54269;SDS011;40181;51.560;13.000;2023-02-28T06:14:17;5.97;;;4.15;;
54269;SDS011;40181;51.560;13.000;2023-02-28T06:16:50;3.75;;;3.25;;
54269;SDS011;40181;51.560;13.000;2023-02-28T06:19:19;5.30;;;3.63;;
54269;SDS011;40181;51.560;13.000;2023-02-28T06:21:50;4.13;;;3.22;;
54269;SDS011;40181;51.560;13.000;2023-02-28T06:24:20;4.30;;;3.78;;
54269;SDS011;40181;51.560;13.000;2023-02-28T06:26:49;5.10;;;3.87;;
54269;SDS011;40181;51.560;13.000;2023-02-28T06:29:19;3.92;;;3.47;;
54269;SDS011;40181;51.560;13.000;2023-02-28T06:31:50;5.07;;;3.90;;
54269;SDS011;40181;51.560;13.000;2023-02-28T06:34:20;4.35;;;3.72;;
54269;SDS011;40181;51.560;13.000;2023-02-28T06:36:50;5.55;;;3.20;;
54269;SDS011;40181;51.560;13.000;2023-02-28T06:39:20;7.00;;;3.75;;
54269;SDS011;40181;51.560;13.000;2023-02-28T06:41:49;4.45;;;3.60;;
54269;SDS011;40181;51.560;13.000;2023-02-28T06:44:18;5.70;;;4.00;;
54269;SDS011;40181;51.560;13.000;2023-02-28T06:46:47;4.25;;;3.42;;
54269;SDS011;40181;51.560;13.000;2023-02-28T06:49:19;3.55;;;2.97;;
54269;SDS011;40181;51.560;13.000;2023-02-28T06:51:48;3.90;;;3.45;;
54269;SDS011;40181;51.560;13.000;2023-02-28T06:54:17;3.47;;;2.92;;
54269;SDS011;40181;51.560;13.000;2023-02-28T06:56:46;4.93;;;3.45;;
54269;SDS011;40181;51.560;13.000;2023-02-28T06:59:15;3.53;;;3.10;;
54269;SDS011;40181;51.560;13.000;2023-02-28T07:01:44;5.43;;;3.60;;
54269;SDS011;40181;51.560;13.000;2023-02-28T07:04:16;4.70;;;3.45;;
54269;SDS011;40181;51.560;13.000;2023-02-28T07:06:45;3.35;;;2.97;;
54269;SDS011;40181;51.560;13.000;2023-02-28T07:09:14;4.07;;;3.60;;
54269;SDS011;40181;51.560;13.000;2023-02-28T07:11:44;4.22;;;3.15;;
54269;SDS011;40181;51.560;13.000;2023-02-28T07:14:13;3.90;;;3.00;;
54269;SDS011;40181;51.560;13.000;2023-02-28T07:16:43;3.47;;;3.17;;
54269;SDS011;40181;51.560;13.000;2023-02-28T07:19:12;6.35;;;3.20;;
54269;SDS011;40181;51.560;13.000;2023-02-28T07:21:43;5.00;;;3.33;;
54269;SDS011;40181;51.560;13.000;2023-02-28T07:24:12;4.72;;;3.47;;
54269;SDS011;40181;51.560;13.000;2023-02-28T07:26:43;4.70;;;3.83;;
54269;SDS011;40181;51.560;13.000;2023-02-28T07:29:12;4.13;;;3.53;;
54269;SDS011;40181;51.560;13.000;2023-02-28T07:31:40;4.82;;;3.38;;
54269;SDS011;40181;51.560;13.000;2023-02-28T07:36:43;3.38;;;2.90;;
54269;SDS011;40181;51.560;13.000;2023-02-28T07:39:12;3.60;;;3.00;;
54269;SDS011;40181;51.560;13.000;2023-02-28T07:41:41;4.10;;;3.15;;
54269;SDS011;40181;51.560;13.000;2023-02-28T07:44:11;3.80;;;3.13;;
54269;SDS011;40181;51.560;13.000;2023-02-28T07:46:40;7.78;;;3.25;;
54269;SDS011;40181;51.560;13.000;2023-02-28T07:49:09;4.03;;;3.42;;
54269;SDS011;40181;51.560;13.000;2023-02-28T07:51:38;4.43;;;3.50;;
54269;SDS011;40181;51.560;13.000;2023-02-28T07:54:10;4.68;;;3.58;;
54269;SDS011;40181;51.560;13.000;2023-02-28T07:56:39;6.28;;;3.60;;
54269;SDS011;40181;51.560;13.000;2023-02-28T07:59:08;4.65;;;3.78;;
54269;SDS011;40181;51.560;13.000;2023-02-28T08:01:37;4.90;;;3.25;;
54269;SDS011;40181;51.560;13.000;2023-02-28T08:04:06;4.72;;;3.50;;
54269;SDS011;40181;51.560;13.000;2023-02-28T08:06:35;4.13;;;3.08;;
54269;SDS011;40181;51.560;13.000;2023-02-28T08:09:04;6.13;;;3.50;;
54269;SDS011;40181;51.560;13.000;2023-02-28T08:11:35;5.53;;;3.28;;
54269;SDS011;40181;51.560;13.000;2023-02-28T08:14:04;3.58;;;3.15;;
54269;SDS011;40181;51.560;13.000;2023-02-28T08:16:33;4.88;;;3.33;;
54269;SDS011;40181;51.560;13.000;2023-02-28T08:19:03;3.85;;;2.95;;
54269;SDS011;40181;51.560;13.000;2023-02-28T08:21:32;6.72;;;3.10;;
54269;SDS011;40181;51.560;13.000;2023-02-28T08:24:01;4.68;;;3.13;;
54269;SDS011;40181;51.560;13.000;2023-02-28T08:26:31;3.57;;;2.83;;
54269;SDS011;40181;51.560;13.000;2023-02-28T08:29:03;5.30;;;2.92;;
54269;SDS011;40181;51.560;13.000;2023-02-28T08:31:32;4.30;;;3.13;;
54269;SDS011;40181;51.560;13.000;2023-02-28T08:34:04;4.82;;;3.10;;
54269;SDS011;40181;51.560;13.000;2023-02-28T08:36:34;3.72;;;2.85;;
54269;SDS011;40181;51.560;13.000;2023-02-28T08:39:03;4.93;;;3.57;;
54269;SDS011;40181;51.560;13.000;2023-02-28T08:41:34;4.97;;;3.47;;
54269;SDS011;40181;51.560;13.000;2023-02-28T08:44:06;3.28;;;2.97;;
54269;SDS011;40181;51.560;13.000;2023-02-28T08:46:35;4.25;;;2.83;;
54269;SDS011;40181;51.560;13.000;2023-02-28T08:49:04;2.75;;;2.55;;
54269;SDS011;40181;51.560;13.000;2023-02-28T08:51:34;3.65;;;2.92;;
54269;SDS011;40181;51.560;13.000;2023-02-28T08:54:03;5.60;;;2.53;;
54269;SDS011;40181;51.560;13.000;2023-02-28T08:56:33;4.15;;;3.05;;
54269;SDS011;40181;51.560;13.000;2023-02-28T08:59:02;4.22;;;2.38;;
54269;SDS011;40181;51.560;13.000;2023-02-28T09:01:34;5.38;;;3.22;;
54269;SDS011;40181;51.560;13.000;2023-02-28T09:04:03;3.97;;;2.95;;
54269;SDS011;40181;51.560;13.000;2023-02-28T09:06:33;5.93;;;2.83;;
54269;SDS011;40181;51.560;13.000;2023-02-28T09:09:03;4.40;;;2.72;;
54269;SDS011;40181;51.560;13.000;2023-02-28T09:11:33;3.58;;;2.95;;
54269;SDS011;40181;51.560;13.000;2023-02-28T09:14:02;3.17;;;2.75;;
54269;SDS011;40181;51.560;13.000;2023-02-28T09:16:35;3.05;;;2.55;;
54269;SDS011;40181;51.560;13.000;2023-02-28T09:19:04;4.43;;;2.92;;
54269;SDS011;40181;51.560;13.000;2023-02-28T09:21:33;3.53;;;2.45;;
54269;SDS011;40181;51.560;13.000;2023-02-28T09:24:02;5.30;;;2.78;;
54269;SDS011;40181;51.560;13.000;2023-02-28T09:26:32;4.80;;;3.30;;
54269;SDS011;40181;51.560;13.000;2023-02-28T09:29:01;3.70;;;2.95;;
54269;SDS011;40181;51.560;13.000;2023-02-28T09:31:34;5.57;;;3.67;;
54269;SDS011;40181;51.560;13.000;2023-02-28T09:34:03;3.63;;;2.83;;
54269;SDS011;40181;51.560;13.000;2023-02-28T09:36:33;4.82;;;3.05;;
54269;SDS011;40181;51.560;13.000;2023-02-28T09:39:05;5.05;;;3.20;;
54269;SDS011;40181;51.560;13.000;2023-02-28T09:41:36;2.97;;;2.65;;
54269;SDS011;40181;51.560;13.000;2023-02-28T09:44:13;4.40;;;3.03;;
54269;SDS011;40181;51.560;13.000;2023-02-28T09:46:54;4.07;;;2.85;;
54269;SDS011;40181;51.560;13.000;2023-02-28T09:49:30;4.63;;;3.50;;
54269;SDS011;40181;51.560;13.000;2023-02-28T09:52:09;3.25;;;2.92;;
54269;SDS011;40181;51.560;13.000;2023-02-28T09:54:41;5.63;;;3.80;;
54269;SDS011;40181;51.560;13.000;2023-02-28T09:57:13;4.43;;;3.17;;
54269;SDS011;40181;51.560;13.000;2023-02-28T09:59:50;4.40;;;3.00;;
54269;SDS011;40181;51.560;13.000;2023-02-28T10:02:46;2.30;;;2.10;;
54269;SDS011;40181;51.560;13.000;2023-02-28T10:05:32;5.55;;;2.85;;
54269;SDS011;40181;51.560;13.000;2023-02-28T10:08:10;5.43;;;2.92;;
54269;SDS011;40181;51.560;13.000;2023-02-28T10:10:43;3.80;;;2.45;;
54269;SDS011;40181;51.560;13.000;2023-02-28T10:13:16;5.53;;;3.22;;
54269;SDS011;40181;51.560;13.000;2023-02-28T10:15:53;3.08;;;2.22;;
54269;SDS011;40181;51.560;13.000;2023-02-28T10:18:30;4.10;;;2.30;;
54269;SDS011;40181;51.560;13.000;2023-02-28T10:21:09;5.07;;;3.00;;
54269;SDS011;40181;51.560;13.000;2023-02-28T10:23:47;4.18;;;3.03;;
54269;SDS011;40181;51.560;13.000;2023-02-28T10:26:17;2.43;;;2.20;;
54269;SDS011;40181;51.560;13.000;2023-02-28T10:28:46;3.17;;;2.55;;
54269;SDS011;40181;51.560;13.000;2023-02-28T10:31:17;4.10;;;2.88;;
54269;SDS011;40181;51.560;13.000;2023-02-28T10:33:50;4.97;;;3.40;;
54269;SDS011;40181;51.560;13.000;2023-02-28T10:36:20;4.22;;;2.50;;
54269;SDS011;40181;51.560;13.000;2023-02-28T10:38:51;3.60;;;2.90;;
54269;SDS011;40181;51.560;13.000;2023-02-28T10:41:27;4.13;;;2.78;;
54269;SDS011;40181;51.560;13.000;2023-02-28T10:44:13;6.28;;;3.63;;
54269;SDS011;40181;51.560;13.000;2023-02-28T10:46:48;4.80;;;3.17;;
54269;SDS011;40181;51.560;13.000;2023-02-28T10:49:22;3.70;;;2.78;;
54269;SDS011;40181;51.560;13.000;2023-02-28T10:51:54;6.63;;;2.60;;
54269;SDS011;40181;51.560;13.000;2023-02-28T10:54:27;3.17;;;2.47;;
54269;SDS011;40181;51.560;13.000;2023-02-28T10:57:07;3.70;;;2.95;;
54269;SDS011;40181;51.560;13.000;2023-02-28T10:59:45;3.47;;;2.83;;
54269;SDS011;40181;51.560;13.000;2023-02-28T11:02:31;8.50;;;3.42;;
54269;SDS011;40181;51.560;13.000;2023-02-28T11:07:59;4.10;;;2.60;;
54269;SDS011;40181;51.560;13.000;2023-02-28T11:10:44;8.00;;;3.30;;
54269;SDS011;40181;51.560;13.000;2023-02-28T11:13:16;3.00;;;2.20;;
54269;SDS011;40181;51.560;13.000;2023-02-28T11:15:49;3.45;;;2.85;;
54269;SDS011;40181;51.560;13.000;2023-02-28T11:18:23;3.60;;;2.83;;
54269;SDS011;40181;51.560;13.000;2023-02-28T11:21:00;3.45;;;2.40;;
54269;SDS011;40181;51.560;13.000;2023-02-28T11:23:32;3.97;;;2.97;;
54269;SDS011;40181;51.560;13.000;2023-02-28T11:26:05;3.58;;;2.80;;
54269;SDS011;40181;51.560;13.000;2023-02-28T11:28:36;6.13;;;3.75;;
54269;SDS011;40181;51.560;13.000;2023-02-28T11:31:17;5.38;;;3.00;;
54269;SDS011;40181;51.560;13.000;2023-02-28T11:33:47;3.58;;;2.70;;
54269;SDS011;40181;51.560;13.000;2023-02-28T11:36:22;4.18;;;2.95;;
54269;SDS011;40181;51.560;13.000;2023-02-28T11:38:54;3.60;;;2.65;;
54269;SDS011;40181;51.560;13.000;2023-02-28T11:41:30;4.60;;;3.20;;
54269;SDS011;40181;51.560;13.000;2023-02-28T11:44:16;4.18;;;3.25;;
54269;SDS011;40181;51.560;13.000;2023-02-28T11:46:58;4.45;;;2.97;;
54269;SDS011;40181;51.560;13.000;2023-02-28T11:49:35;4.15;;;2.63;;
54269;SDS011;40181;51.560;13.000;2023-02-28T11:52:19;5.10;;;2.42;;
54269;SDS011;40181;51.560;13.000;2023-02-28T11:55:07;3.20;;;2.28;;
54269;SDS011;40181;51.560;13.000;2023-02-28T11:57:49;2.78;;;2.42;;
54269;SDS011;40181;51.560;13.000;2023-02-28T12:00:39;3.67;;;3.20;;
54269;SDS011;40181;51.560;13.000;2023-02-28T12:03:31;5.22;;;3.90;;
54269;SDS011;40181;51.560;13.000;2023-02-28T12:06:15;5.50;;;3.30;;
54269;SDS011;40181;51.560;13.000;2023-02-28T12:08:59;3.25;;;2.70;;
54269;SDS011;40181;51.560;13.000;2023-02-28T12:11:45;3.47;;;2.85;;
54269;SDS011;40181;51.560;13.000;2023-02-28T12:14:25;5.22;;;2.88;;
54269;SDS011;40181;51.560;13.000;2023-02-28T12:17:32;6.30;;;2.90;;
54269;SDS011;40181;51.560;13.000;2023-02-28T12:20:17;5.70;;;2.97;;
54269;SDS011;40181;51.560;13.000;2023-02-28T12:22:55;7.65;;;3.05;;
54269;SDS011;40181;51.560;13.000;2023-02-28T12:26:05;4.05;;;2.55;;
54269;SDS011;40181;51.560;13.000;2023-02-28T12:28:43;3.80;;;2.42;;
54269;SDS011;40181;51.560;13.000;2023-02-28T12:31:19;7.30;;;3.75;;
54269;SDS011;40181;51.560;13.000;2023-02-28T12:33:52;4.40;;;3.17;;
54269;SDS011;40181;51.560;13.000;2023-02-28T12:36:23;3.92;;;3.13;;
54269;SDS011;40181;51.560;13.000;2023-02-28T12:38:54;3.33;;;2.47;;
54269;SDS011;40181;51.560;13.000;2023-02-28T12:41:33;5.45;;;2.70;;
54269;SDS011;40181;51.560;13.000;2023-02-28T12:44:09;4.53;;;2.65;;
54269;SDS011;40181;51.560;13.000;2023-02-28T12:46:44;3.33;;;2.45;;
54269;SDS011;40181;51.560;13.000;2023-02-28T12:49:19;4.13;;;2.45;;
54269;SDS011;40181;51.560;13.000;2023-02-28T12:51:55;6.22;;;3.58;;
54269;SDS011;40181;51.560;13.000;2023-02-28T12:54:26;5.70;;;2.93;;
54269;SDS011;40181;51.560;13.000;2023-02-28T12:57:08;4.53;;;2.40;;
54269;SDS011;40181;51.560;13.000;2023-02-28T12:59:48;5.78;;;2.78;;
54269;SDS011;40181;51.560;13.000;2023-02-28T13:05:52;3.45;;;2.63;;
54269;SDS011;40181;51.560;13.000;2023-02-28T13:08:48;5.72;;;2.80;;
54269;SDS011;40181;51.560;13.000;2023-02-28T13:11:34;10.23;;;4.85;;
54269;SDS011;40181;51.560;13.000;2023-02-28T13:14:20;9.05;;;5.00;;
54269;SDS011;40181;51.560;13.000;2023-02-28T13:16:57;9.98;;;4.78;;
54269;SDS011;40181;51.560;13.000;2023-02-28T13:19:30;4.80;;;3.50;;
54269;SDS011;40181;51.560;13.000;2023-02-28T13:22:02;5.90;;;3.67;;
54269;SDS011;40181;51.560;13.000;2023-02-28T13:24:41;3.90;;;2.58;;
54269;SDS011;40181;51.560;13.000;2023-02-28T13:33:31;5.13;;;3.53;;
54269;SDS011;40181;51.560;13.000;2023-02-28T13:36:07;7.15;;;3.55;;
54269;SDS011;40181;51.560;13.000;2023-02-28T13:38:55;4.55;;;3.13;;
54269;SDS011;40181;51.560;13.000;2023-02-28T13:41:42;4.90;;;3.13;;
54269;SDS011;40181;51.560;13.000;2023-02-28T13:44:16;3.10;;;2.55;;
54269;SDS011;40181;51.560;13.000;2023-02-28T13:52:51;6.10;;;2.83;;
54269;SDS011;40181;51.560;13.000;2023-02-28T13:55:51;6.22;;;3.42;;
54269;SDS011;40181;51.560;13.000;2023-02-28T13:58:27;3.22;;;2.53;;
54269;SDS011;40181;51.560;13.000;2023-02-28T14:01:28;4.13;;;3.35;;
54269;SDS011;40181;51.560;13.000;2023-02-28T14:07:32;4.15;;;2.92;;
54269;SDS011;40181;51.560;13.000;2023-02-28T14:10:16;4.75;;;2.15;;
54269;SDS011;40181;51.560;13.000;2023-02-28T14:12:58;1.92;;;1.70;;
54269;SDS011;40181;51.560;13.000;2023-02-28T14:15:50;3.70;;;2.42;;
54269;SDS011;40181;51.560;13.000;2023-02-28T14:18:27;3.50;;;2.50;;
54269;SDS011;40181;51.560;13.000;2023-02-28T14:21:09;4.70;;;3.17;;
54269;SDS011;40181;51.560;13.000;2023-02-28T14:26:57;4.28;;;2.33;;
54269;SDS011;40181;51.560;13.000;2023-02-28T14:29:45;5.68;;;3.05;;
54269;SDS011;40181;51.560;13.000;2023-02-28T14:32:49;4.25;;;2.67;;
54269;SDS011;40181;51.560;13.000;2023-02-28T14:35:34;4.30;;;2.70;;
54269;SDS011;40181;51.560;13.000;2023-02-28T14:38:19;8.05;;;3.17;;
54269;SDS011;40181;51.560;13.000;2023-02-28T14:40:54;5.10;;;3.33;;
54269;SDS011;40181;51.560;13.000;2023-02-28T14:43:27;5.53;;;3.10;;
54269;SDS011;40181;51.560;13.000;2023-02-28T14:45:59;4.63;;;2.85;;
54269;SDS011;40181;51.560;13.000;2023-02-28T14:48:30;7.15;;;3.20;;
54269;SDS011;40181;51.560;13.000;2023-02-28T14:51:00;4.20;;;2.50;;
54269;SDS011;40181;51.560;13.000;2023-02-28T14:53:35;4.15;;;2.47;;
54269;SDS011;40181;51.560;13.000;2023-02-28T14:56:06;3.38;;;2.30;;
54269;SDS011;40181;51.560;13.000;2023-02-28T14:58:51;4.32;;;2.50;;
54269;SDS011;40181;51.560;13.000;2023-02-28T15:01:22;3.47;;;2.45;;
54269;SDS011;40181;51.560;13.000;2023-02-28T15:04:02;3.55;;;2.53;;
54269;SDS011;40181;51.560;13.000;2023-02-28T15:06:33;2.85;;;2.13;;
54269;SDS011;40181;51.560;13.000;2023-02-28T15:09:14;2.83;;;2.03;;
54269;SDS011;40181;51.560;13.000;2023-02-28T15:11:47;3.83;;;2.55;;
54269;SDS011;40181;51.560;13.000;2023-02-28T15:14:19;4.25;;;2.63;;
54269;SDS011;40181;51.560;13.000;2023-02-28T15:16:51;3.50;;;2.13;;
54269;SDS011;40181;51.560;13.000;2023-02-28T15:19:25;7.15;;;3.45;;
54269;SDS011;40181;51.560;13.000;2023-02-28T15:21:57;5.43;;;2.78;;
54269;SDS011;40181;51.560;13.000;2023-02-28T15:24:35;9.02;;;3.22;;
54269;SDS011;40181;51.560;13.000;2023-02-28T15:27:10;4.35;;;2.45;;
54269;SDS011;40181;51.560;13.000;2023-02-28T15:29:48;3.42;;;2.38;;
54269;SDS011;40181;51.560;13.000;2023-02-28T15:32:24;3.50;;;2.17;;
54269;SDS011;40181;51.560;13.000;2023-02-28T15:34:56;3.70;;;3.13;;
54269;SDS011;40181;51.560;13.000;2023-02-28T15:37:36;6.25;;;3.10;;
54269;SDS011;40181;51.560;13.000;2023-02-28T15:40:15;7.07;;;3.65;;
54269;SDS011;40181;51.560;13.000;2023-02-28T15:42:58;4.90;;;3.10;;
54269;SDS011;40181;51.560;13.000;2023-02-28T15:48:09;3.17;;;2.20;;
54269;SDS011;40181;51.560;13.000;2023-02-28T15:53:19;4.95;;;2.65;;
54269;SDS011;40181;51.560;13.000;2023-02-28T15:55:56;4.13;;;2.50;;
54269;SDS011;40181;51.560;13.000;2023-02-28T15:58:30;2.75;;;2.30;;
54269;SDS011;40181;51.560;13.000;2023-02-28T16:01:01;5.63;;;2.83;;